createdAt,value
2019-02-15T00:00:49.825Z,101588.20
2019-02-15T00:03:16.378Z,101591.30
2019-02-15T00:05:45.774Z,101592.66
2019-02-15T00:08:12.317Z,101600.77
2019-02-15T00:10:38.889Z,101599.38
2019-02-15T00:13:13.322Z,101597.62
2019-02-15T00:15:33.937Z,101597.39
2019-02-15T00:18:20.165Z,101598.80
2019-02-15T00:21:09.281Z,101597.07
2019-02-15T00:23:35.783Z,101594.54
2019-02-15T00:26:02.678Z,101587.94
2019-02-15T00:28:29.233Z,101582.47
2019-02-15T00:30:55.786Z,101579.37
2019-02-15T00:33:22.339Z,101575.64
2019-02-15T00:35:48.930Z,101576.55
2019-02-15T00:38:15.484Z,101576.88
2019-02-15T00:40:42.059Z,101576.59
2019-02-15T00:43:08.621Z,101571.96
2019-02-15T00:45:48.150Z,101573.83
2019-02-15T00:48:17.393Z,101576.68
2019-02-15T00:50:57.760Z,101572.43
2019-02-15T00:53:39.427Z,101566.39
2019-02-15T00:56:24.010Z,101576.33
2019-02-15T00:59:08.670Z,101578.06
2019-02-15T01:01:49.162Z,101575.87
2019-02-15T01:04:33.900Z,101552.25
2019-02-15T01:07:11.663Z,101581.78
2019-02-15T01:09:46.050Z,101579.29
2019-02-15T01:12:27.952Z,101579.22
2019-02-15T01:14:56.784Z,101577.30
2019-02-15T01:17:23.346Z,101573.88
2019-02-15T01:19:49.923Z,101573.98
2019-02-15T01:22:16.459Z,101567.31
2019-02-15T01:24:43.029Z,101576.24
2019-02-15T01:27:17.892Z,101575.40
2019-02-15T01:29:56.322Z,101571.19
2019-02-15T01:32:32.288Z,101576.83
2019-02-15T01:35:15.829Z,101574.78
2019-02-15T01:38:07.722Z,101571.39
2019-02-15T01:40:48.749Z,101562.41
2019-02-15T01:43:40.793Z,101575.09
2019-02-15T01:46:20.153Z,101564.83
2019-02-15T01:48:46.698Z,101569.72
2019-02-15T01:51:13.264Z,101566.13
2019-02-15T01:53:39.827Z,101561.50
2019-02-15T01:56:06.388Z,101562.90
2019-02-15T01:58:32.947Z,101561.33
2019-02-15T02:00:59.524Z,101559.77
2019-02-15T02:03:26.408Z,101553.06
2019-02-15T02:05:52.986Z,101552.29
2019-02-15T02:08:22.123Z,101552.29
2019-02-15T02:10:48.801Z,101544.34
2019-02-15T02:13:15.363Z,101545.31
2019-02-15T02:15:41.946Z,101550.25
2019-02-15T02:18:08.485Z,101555.10
2019-02-15T02:20:35.030Z,101544.14
2019-02-15T02:23:01.929Z,101541.68
2019-02-15T02:25:28.528Z,101530.77
2019-02-15T02:27:55.096Z,101532.94
2019-02-15T02:30:21.641Z,101536.78
2019-02-15T02:32:48.209Z,101533.07
2019-02-15T02:35:14.755Z,101533.62
2019-02-15T02:37:41.345Z,101538.03
2019-02-15T02:40:07.852Z,101532.66
2019-02-15T02:42:34.452Z,101531.50
2019-02-15T02:45:00.997Z,101533.22
2019-02-15T02:47:27.561Z,101533.30
2019-02-15T02:49:54.133Z,101526.84
2019-02-15T02:52:20.658Z,101525.47
2019-02-15T02:54:47.207Z,101528.88
2019-02-15T02:57:13.763Z,101522.58
2019-02-15T02:59:40.303Z,101524.38
2019-02-15T03:02:06.853Z,101526.30
2019-02-15T03:04:33.399Z,101519.11
2019-02-15T03:06:59.959Z,101520.38
2019-02-15T03:09:26.519Z,101524.58
2019-02-15T03:11:53.098Z,101526.80
2019-02-15T03:14:19.660Z,101527.65
2019-02-15T03:16:46.219Z,101528.49
2019-02-15T03:19:12.793Z,101529.73
2019-02-15T03:21:39.364Z,101528.78
2019-02-15T03:24:05.903Z,101522.37
2019-02-15T03:26:32.503Z,101516.08
2019-02-15T03:28:59.076Z,101517.34
2019-02-15T03:31:25.602Z,101515.37
2019-02-15T03:33:52.163Z,101510.28
2019-02-15T03:36:32.510Z,101513.16
2019-02-15T03:39:09.257Z,101511.94
2019-02-15T03:41:35.903Z,101514.66
2019-02-15T03:44:02.476Z,101510.84
2019-02-15T03:46:29.005Z,101517.09
2019-02-15T03:48:55.572Z,101520.11
2019-02-15T03:51:22.115Z,101511.80
2019-02-15T03:53:49.897Z,101514.53
2019-02-15T03:56:16.438Z,101508.78
2019-02-15T03:58:43.008Z,101508.95
2019-02-15T04:01:09.561Z,101510.66
2019-02-15T04:03:36.133Z,101512.56
2019-02-15T04:06:02.702Z,101519.63
2019-02-15T04:08:29.260Z,101522.19
2019-02-15T04:10:55.808Z,101518.03
2019-02-15T04:13:22.366Z,101518.05
2019-02-15T04:15:48.932Z,101521.22
2019-02-15T04:18:15.503Z,101526.48
2019-02-15T04:20:42.044Z,101527.58
2019-02-15T04:23:08.615Z,101532.71
2019-02-15T04:25:35.194Z,101528.65
2019-02-15T04:28:01.742Z,101524.50
2019-02-15T04:30:28.283Z,101528.33
2019-02-15T04:32:54.848Z,101533.59
2019-02-15T04:35:21.398Z,101534.56
2019-02-15T04:37:47.967Z,101526.19
2019-02-15T04:40:14.512Z,101529.58
2019-02-15T04:42:41.079Z,101529.63
2019-02-15T04:45:07.670Z,101523.27
2019-02-15T04:47:34.223Z,101523.27
2019-02-15T04:50:00.786Z,101527.55
2019-02-15T04:52:27.325Z,101524.09
2019-02-15T04:54:53.886Z,101521.36
2019-02-15T04:57:20.446Z,101528.25
2019-02-15T04:59:47.016Z,101525.00
2019-02-15T05:02:13.576Z,101527.21
2019-02-15T05:04:40.128Z,101526.78
2019-02-15T05:07:06.693Z,101527.28
2019-02-15T05:09:33.268Z,101526.45
2019-02-15T05:11:59.838Z,101518.84
2019-02-15T05:14:26.369Z,101515.75
2019-02-15T05:16:52.952Z,101520.02
2019-02-15T05:19:19.491Z,101517.90
2019-02-15T05:21:46.065Z,101517.41
2019-02-15T05:24:12.613Z,101517.05
2019-02-15T05:26:39.163Z,101514.39
2019-02-15T05:29:05.727Z,101520.31
2019-02-15T05:31:32.266Z,101517.82
2019-02-15T05:33:58.850Z,101514.06
2019-02-15T05:36:25.404Z,101512.41
2019-02-15T05:38:51.986Z,101512.37
2019-02-15T05:41:18.517Z,101505.58
2019-02-15T05:43:45.088Z,101504.39
2019-02-15T05:46:11.633Z,101506.86
2019-02-15T05:48:38.202Z,101509.05
2019-02-15T05:51:10.142Z,101511.59
2019-02-15T05:53:36.986Z,101515.47
2019-02-15T05:56:03.534Z,101511.66
2019-02-15T05:58:30.065Z,101513.84
2019-02-15T06:00:56.630Z,101517.68
2019-02-15T06:03:23.185Z,101514.34
2019-02-15T06:05:49.738Z,101512.20
2019-02-15T06:08:16.277Z,101517.20
2019-02-15T06:10:42.839Z,101518.83
2019-02-15T06:13:09.417Z,101514.94
2019-02-15T06:15:35.974Z,101509.95
2019-02-15T06:18:02.527Z,101510.49
2019-02-15T06:20:29.092Z,101509.34
2019-02-15T06:22:55.659Z,101515.76
2019-02-15T06:25:22.219Z,101511.75
2019-02-15T06:27:48.786Z,101510.56
2019-02-15T06:30:15.315Z,101506.02
2019-02-15T06:32:41.884Z,101509.00
2019-02-15T06:35:08.443Z,101514.47
2019-02-15T06:37:34.995Z,101523.30
2019-02-15T06:40:01.599Z,101519.08
2019-02-15T06:42:28.522Z,101521.26
2019-02-15T06:44:55.092Z,101523.36
2019-02-15T06:47:21.629Z,101527.62
2019-02-15T06:49:48.188Z,101528.42
2019-02-15T06:52:14.748Z,101531.81
2019-02-15T06:54:41.281Z,101532.25
2019-02-15T06:57:07.847Z,101532.70
2019-02-15T07:00:00.292Z,101528.86
2019-02-15T07:02:46.481Z,101534.70
2019-02-15T07:05:17.155Z,101536.02
2019-02-15T07:07:43.372Z,101532.63
2019-02-15T07:10:09.870Z,101535.16
2019-02-15T07:12:36.415Z,101538.13
2019-02-15T07:15:03.213Z,101543.64
2019-02-15T07:17:29.790Z,101538.52
2019-02-15T07:19:56.333Z,101539.79
2019-02-15T07:22:22.897Z,101540.12
2019-02-15T07:24:49.444Z,101542.06
2019-02-15T07:27:16.001Z,101536.93
2019-02-15T07:29:42.560Z,101535.58
2019-02-15T07:32:09.096Z,101532.92
2019-02-15T07:34:35.669Z,101530.34
2019-02-15T07:37:02.227Z,101526.83
2019-02-15T07:39:28.790Z,101524.03
2019-02-15T07:41:55.352Z,101528.26
2019-02-15T07:44:21.896Z,101520.72
2019-02-15T07:46:48.463Z,101528.36
2019-02-15T07:49:15.030Z,101525.84
2019-02-15T07:51:41.575Z,101529.95
2019-02-15T07:54:08.122Z,101526.49
2019-02-15T07:56:34.679Z,101518.52
2019-02-15T07:59:01.219Z,101521.91
2019-02-15T08:01:27.792Z,101524.89
2019-02-15T08:03:54.328Z,101524.22
2019-02-15T08:06:20.897Z,101520.36
2019-02-15T08:08:47.433Z,101519.40
2019-02-15T08:11:14.002Z,101512.43
2019-02-15T08:13:40.552Z,101516.16
2019-02-15T08:16:07.117Z,101512.93
2019-02-15T08:18:33.674Z,101512.28
2019-02-15T08:21:00.230Z,101506.73
2019-02-15T08:23:26.776Z,101505.61
2019-02-15T08:25:53.367Z,101512.26
2019-02-15T08:28:19.906Z,101509.14
2019-02-15T08:30:46.447Z,101504.30
2019-02-15T08:33:13.021Z,101489.56
2019-02-15T08:35:39.551Z,101489.56
2019-02-15T08:38:06.102Z,101482.38
2019-02-15T08:40:32.637Z,101477.87
2019-02-15T08:42:59.198Z,101477.30
2019-02-15T08:45:25.757Z,101477.80
2019-02-15T08:47:52.314Z,101481.25
2019-02-15T08:50:18.861Z,101480.14
2019-02-15T08:52:45.409Z,101478.85
2019-02-15T08:55:11.937Z,101469.87
2019-02-15T08:57:38.487Z,101474.30
2019-02-15T09:00:06.056Z,101471.95
2019-02-15T09:02:32.612Z,101470.66
2019-02-15T09:04:59.142Z,101469.81
2019-02-15T09:07:25.705Z,101469.81
2019-02-15T09:09:52.244Z,101475.80
2019-02-15T09:12:18.807Z,101475.04
2019-02-15T09:14:45.349Z,101469.59
2019-02-15T09:17:11.929Z,101473.02
2019-02-15T09:19:38.468Z,101472.59
2019-02-15T09:22:05.017Z,101476.50
2019-02-15T09:24:31.555Z,101472.48
2019-02-15T09:27:00.842Z,101469.52
2019-02-15T09:29:27.384Z,101463.80
2019-02-15T09:31:53.953Z,101464.72
2019-02-15T09:34:20.512Z,101462.52
2019-02-15T09:36:47.056Z,101469.73
2019-02-15T09:39:13.620Z,101463.08
2019-02-15T09:41:40.160Z,101462.03
2019-02-15T09:44:06.785Z,101461.89
2019-02-15T09:46:33.353Z,101459.20
2019-02-15T09:48:59.913Z,101467.42
2019-02-15T09:51:26.450Z,101457.02
2019-02-15T09:53:53.021Z,101462.28
2019-02-15T09:56:19.557Z,101449.73
2019-02-15T09:58:46.122Z,101456.16
2019-02-15T10:01:12.706Z,101451.50
2019-02-15T10:03:39.266Z,101455.44
2019-02-15T10:06:05.798Z,101450.41
2019-02-15T10:08:32.353Z,101453.82
2019-02-15T10:10:58.899Z,101443.69
2019-02-15T10:13:25.464Z,101439.64
2019-02-15T10:15:52.011Z,101446.01
2019-02-15T10:18:18.581Z,101448.62
2019-02-15T10:20:45.140Z,101441.45
2019-02-15T10:23:11.704Z,101444.58
2019-02-15T10:25:38.258Z,101444.22
2019-02-15T10:28:04.825Z,101441.62
2019-02-15T10:30:31.362Z,101444.02
2019-02-15T10:32:57.906Z,101446.40
2019-02-15T10:35:24.471Z,101447.06
2019-02-15T10:37:51.001Z,101449.36
2019-02-15T10:40:17.563Z,101448.52
2019-02-15T10:42:44.104Z,101449.63
2019-02-15T10:45:11.283Z,101438.99
2019-02-15T10:47:37.816Z,101433.98
2019-02-15T10:50:05.154Z,101430.67
2019-02-15T10:52:31.898Z,101427.88
2019-02-15T10:54:58.472Z,101422.42
2019-02-15T10:57:25.002Z,101423.97
2019-02-15T10:59:51.608Z,101422.44
2019-02-15T11:02:18.148Z,101413.52
2019-02-15T11:04:44.712Z,101405.23
2019-02-15T11:07:11.256Z,101410.87
2019-02-15T11:09:37.820Z,101401.47
2019-02-15T11:12:04.350Z,101402.42
2019-02-15T11:14:31.153Z,101393.50
2019-02-15T11:16:57.709Z,101402.25
2019-02-15T11:19:24.323Z,101391.55
2019-02-15T11:21:50.822Z,101394.55
2019-02-15T11:24:17.413Z,101393.81
2019-02-15T11:26:43.914Z,101383.07
2019-02-15T11:29:10.482Z,101374.00
2019-02-15T11:31:37.033Z,101373.30
2019-02-15T11:34:03.594Z,101369.81
2019-02-15T11:36:30.147Z,101359.83
2019-02-15T11:38:56.714Z,101366.11
2019-02-15T11:41:23.264Z,101358.08
2019-02-15T11:43:49.819Z,101362.66
2019-02-15T11:46:16.387Z,101363.58
2019-02-15T11:48:42.936Z,101361.67
2019-02-15T11:51:09.499Z,101355.83
2019-02-15T11:53:36.034Z,101346.84
2019-02-15T11:56:02.608Z,101340.00
2019-02-15T11:58:29.138Z,101358.41
2019-02-15T12:00:55.710Z,101348.63
2019-02-15T12:03:22.250Z,101347.35
2019-02-15T12:05:48.819Z,101339.98
2019-02-15T12:08:15.362Z,101345.80
2019-02-15T12:10:41.933Z,101340.50
2019-02-15T12:13:08.461Z,101337.95
2019-02-15T12:15:35.005Z,101337.97
2019-02-15T12:18:01.591Z,101336.02
2019-02-15T12:20:28.184Z,101324.55
2019-02-15T12:22:54.718Z,101331.27
2019-02-15T12:25:21.281Z,101329.78
2019-02-15T12:27:48.044Z,101324.17
2019-02-15T12:30:14.681Z,101316.19
2019-02-15T12:32:41.240Z,101319.30
2019-02-15T12:35:07.818Z,101329.47
2019-02-15T12:37:34.361Z,101314.42
2019-02-15T12:40:00.920Z,101312.93
2019-02-15T12:42:27.467Z,101312.27
2019-02-15T12:44:54.034Z,101319.45
2019-02-15T12:47:20.572Z,101308.59
2019-02-15T12:49:47.136Z,101299.14
2019-02-15T12:52:13.666Z,101297.70
2019-02-15T12:54:40.248Z,101282.32
2019-02-15T12:57:06.798Z,101287.48
2019-02-15T12:59:33.362Z,101290.54
2019-02-15T13:01:59.912Z,101279.44
2019-02-15T13:04:26.456Z,101281.25
2019-02-15T13:06:53.012Z,101289.20
2019-02-15T13:09:19.566Z,101276.42
2019-02-15T13:11:46.095Z,101269.52
2019-02-15T13:14:12.647Z,101271.55
2019-02-15T13:16:39.219Z,101265.92
2019-02-15T13:19:05.788Z,101268.60
2019-02-15T13:21:32.341Z,101266.75
2019-02-15T13:23:58.880Z,101269.69
2019-02-15T13:26:25.508Z,101255.95
2019-02-15T13:28:52.190Z,101255.04
2019-02-15T13:31:18.754Z,101234.48
2019-02-15T13:33:45.325Z,101252.39
2019-02-15T13:36:12.582Z,101235.06
2019-02-15T13:38:39.130Z,101242.72
2019-02-15T13:41:05.678Z,101232.77
2019-02-15T13:43:32.238Z,101232.91
2019-02-15T13:45:58.781Z,101227.25
2019-02-15T13:48:25.342Z,101225.50
2019-02-15T13:50:51.883Z,101218.72
2019-02-15T13:53:18.430Z,101225.09
2019-02-15T13:55:45.094Z,101219.08
2019-02-15T13:58:11.646Z,101212.21
2019-02-15T14:00:38.211Z,101210.75
2019-02-15T14:03:04.751Z,101210.67
2019-02-15T14:05:31.300Z,101207.27
2019-02-15T14:07:57.849Z,101204.23
2019-02-15T14:10:24.401Z,101203.05
2019-02-15T14:12:50.964Z,101200.34
2019-02-15T14:15:17.510Z,101198.16
2019-02-15T14:17:46.487Z,101194.69
2019-02-15T14:20:12.491Z,101192.27
2019-02-15T14:22:39.039Z,101198.88
2019-02-15T14:25:06.361Z,101199.19
2019-02-15T14:27:32.923Z,101187.88
2019-02-15T14:29:59.491Z,101191.86
2019-02-15T14:32:26.050Z,101197.58
2019-02-15T14:34:52.576Z,101184.93
2019-02-15T14:37:19.143Z,101194.39
2019-02-15T14:39:45.787Z,101181.14
2019-02-15T14:42:12.332Z,101172.31
2019-02-15T14:44:38.853Z,101175.05
2019-02-15T14:47:05.405Z,101170.80
2019-02-15T14:49:31.931Z,101178.99
2019-02-15T14:51:58.474Z,101169.04
2019-02-15T14:54:25.013Z,101174.80
2019-02-15T14:56:51.566Z,101163.57
2019-02-15T14:59:18.101Z,101155.41
2019-02-15T15:01:44.680Z,101155.05
2019-02-15T15:04:11.224Z,101152.25
2019-02-15T15:06:37.767Z,101152.69
2019-02-15T15:09:04.684Z,101152.37
2019-02-15T15:11:31.236Z,101147.55
2019-02-15T15:13:57.775Z,101148.99
2019-02-15T15:16:24.327Z,101141.19
2019-02-15T15:18:50.858Z,101135.34
2019-02-15T15:21:17.410Z,101125.09
2019-02-15T15:23:43.943Z,101124.98
2019-02-15T15:26:12.029Z,101115.73
2019-02-15T15:28:38.832Z,101132.09
2019-02-15T15:31:06.022Z,101122.56
2019-02-15T15:33:32.580Z,101125.32
2019-02-15T15:35:59.141Z,101118.20
2019-02-15T15:38:25.704Z,101119.83
2019-02-15T15:40:52.238Z,101118.13
2019-02-15T15:43:18.798Z,101116.36
2019-02-15T15:45:45.325Z,101113.52
2019-02-15T15:48:11.981Z,101114.83
2019-02-15T15:50:40.574Z,101116.66
2019-02-15T15:53:07.924Z,101116.27
2019-02-15T15:55:34.551Z,101113.76
2019-02-15T15:58:01.107Z,101120.59
2019-02-15T16:00:27.643Z,101113.12
2019-02-15T16:02:54.198Z,101114.45
2019-02-15T16:05:20.744Z,101118.97
2019-02-15T16:07:47.294Z,101117.67
2019-02-15T16:10:13.838Z,101118.31
2019-02-15T16:12:40.384Z,101121.17
2019-02-15T16:15:07.831Z,101115.09
2019-02-15T16:17:34.395Z,101110.70
2019-02-15T16:20:00.937Z,101107.99
2019-02-15T16:22:27.496Z,101119.95
2019-02-15T16:24:54.023Z,101117.09
2019-02-15T16:27:20.587Z,101119.88
2019-02-15T16:29:47.135Z,101117.20
2019-02-15T16:32:13.689Z,101124.12
2019-02-15T16:34:40.236Z,101117.80
2019-02-15T16:37:06.797Z,101116.61
2019-02-15T16:39:33.471Z,101116.50
2019-02-15T16:42:00.024Z,101116.64
2019-02-15T16:44:26.568Z,101115.95
2019-02-15T16:46:53.136Z,101110.08
2019-02-15T16:49:19.817Z,101110.16
2019-02-15T16:51:46.378Z,101107.61
2019-02-15T16:54:12.944Z,101110.31
2019-02-15T16:56:39.513Z,101101.89
2019-02-15T16:59:06.086Z,101108.70
2019-02-15T17:01:32.628Z,101106.67
2019-02-15T17:03:59.199Z,101099.53
2019-02-15T17:06:25.726Z,101101.41
2019-02-15T17:08:52.285Z,101103.03
2019-02-15T17:11:18.878Z,101103.23
2019-02-15T17:13:45.386Z,101108.56
2019-02-15T17:16:11.952Z,101109.61
2019-02-15T17:18:38.625Z,101102.63
2019-02-15T17:21:05.167Z,101104.75
2019-02-15T17:23:31.731Z,101106.26
2019-02-15T17:25:58.266Z,101095.80
2019-02-15T17:28:24.825Z,101093.97
2019-02-15T17:30:51.371Z,101095.92
2019-02-15T17:33:17.940Z,101089.17
2019-02-15T17:35:44.475Z,101096.69
2019-02-15T17:38:11.430Z,101095.67
2019-02-15T17:40:37.971Z,101087.31
2019-02-15T17:43:04.576Z,101093.14
2019-02-15T17:45:31.118Z,101091.34
2019-02-15T17:47:57.665Z,101091.78
2019-02-15T17:50:24.205Z,101087.38
2019-02-15T17:52:50.760Z,101081.77
2019-02-15T17:55:17.295Z,101090.42
2019-02-15T17:57:43.867Z,101095.69
2019-02-15T18:00:10.523Z,101087.30
2019-02-15T18:02:37.078Z,101085.74
2019-02-15T18:05:03.802Z,101081.61
2019-02-15T18:07:30.359Z,101086.75
2019-02-15T18:09:56.901Z,101082.39
2019-02-15T18:12:23.440Z,101080.31
2019-02-15T18:14:49.998Z,101086.08
2019-02-15T18:17:16.558Z,101083.08
2019-02-15T18:19:47.355Z,101071.11
2019-02-15T18:22:11.540Z,101080.05
2019-02-15T18:24:38.106Z,101080.61
2019-02-15T18:27:04.827Z,101073.64
2019-02-15T18:29:31.448Z,101076.33
2019-02-15T18:31:57.978Z,101076.23
2019-02-15T18:34:24.526Z,101081.95
2019-02-15T18:36:51.060Z,101079.48
2019-02-15T18:39:17.617Z,101080.48
2019-02-15T18:41:44.301Z,101078.99
2019-02-15T18:44:10.835Z,101073.75
2019-02-15T18:46:37.382Z,101072.45
2019-02-15T18:49:03.939Z,101073.31
2019-02-15T18:51:30.474Z,101071.06
2019-02-15T18:53:57.043Z,101062.02
2019-02-15T18:56:23.553Z,101067.86
2019-02-15T18:58:50.115Z,101067.21
2019-02-15T19:01:16.656Z,101061.10
2019-02-15T19:03:43.226Z,101057.80
2019-02-15T19:06:09.764Z,101056.16
2019-02-15T19:08:36.310Z,101058.62
2019-02-15T19:11:03.254Z,101053.61
2019-02-15T19:13:29.800Z,101054.15
2019-02-15T19:15:56.345Z,101054.26
2019-02-15T19:18:22.960Z,101052.86
2019-02-15T19:20:49.546Z,101050.11
2019-02-15T19:23:16.141Z,101046.19
2019-02-15T19:25:42.693Z,101037.98
2019-02-15T19:28:09.222Z,101040.31
2019-02-15T19:30:35.834Z,101045.16
2019-02-15T19:33:02.379Z,101030.52
2019-02-15T19:35:28.921Z,101039.31
2019-02-15T19:37:55.454Z,101033.13
2019-02-15T19:40:22.001Z,100917.27
2019-02-15T19:42:49.864Z,101003.80
2019-02-15T19:45:16.416Z,101026.89
2019-02-15T19:47:42.962Z,101031.35
2019-02-15T19:50:11.211Z,101028.89
2019-02-15T19:52:38.238Z,101024.48
2019-02-15T19:55:05.205Z,101019.17
2019-02-15T19:57:31.756Z,101021.00
2019-02-15T19:59:58.322Z,101013.20
2019-02-15T20:02:24.913Z,101017.70
2019-02-15T20:04:51.472Z,101011.38
2019-02-15T20:07:18.002Z,101012.70
2019-02-15T20:09:44.568Z,101016.58
2019-02-15T20:12:11.141Z,101012.66
2019-02-15T20:14:37.664Z,101014.84
2019-02-15T20:17:04.255Z,101010.70
2019-02-15T20:19:30.817Z,101012.09
2019-02-15T20:21:57.352Z,101007.23
2019-02-15T20:24:23.888Z,101006.66
2019-02-15T20:26:50.446Z,101000.84
2019-02-15T20:29:16.991Z,100997.77
2019-02-15T20:31:43.554Z,101004.41
2019-02-15T20:34:10.121Z,100999.56
2019-02-15T20:36:36.680Z,101005.05
2019-02-15T20:39:03.859Z,100998.45
2019-02-15T20:41:30.421Z,101002.86
2019-02-15T20:43:56.965Z,101005.41
2019-02-15T20:46:23.522Z,100999.06
2019-02-15T20:49:03.832Z,100992.39
2019-02-15T20:51:18.510Z,100998.01
2019-02-15T20:53:45.066Z,100994.55
2019-02-15T20:56:11.619Z,100996.31
2019-02-15T20:58:38.164Z,100997.25
2019-02-15T21:01:04.726Z,100987.49
2019-02-15T21:03:31.273Z,100985.25
2019-02-15T21:05:57.816Z,100989.58
2019-02-15T21:08:26.469Z,100992.56
2019-02-15T21:10:55.340Z,100986.73
2019-02-15T21:13:21.288Z,100988.46
2019-02-15T21:15:48.122Z,100983.02
2019-02-15T21:18:14.731Z,100987.08
2019-02-15T21:20:41.281Z,100982.00
2019-02-15T21:23:07.813Z,100987.79
2019-02-15T21:25:34.374Z,100987.93
2019-02-15T21:28:00.902Z,100984.19
2019-02-15T21:30:27.460Z,100981.19
2019-02-15T21:32:53.999Z,100976.70
2019-02-15T21:35:20.540Z,100986.24
2019-02-15T21:37:47.096Z,100981.56
2019-02-15T21:40:14.073Z,100979.89
2019-02-15T21:42:40.630Z,100977.06
2019-02-15T21:45:07.853Z,100967.98
2019-02-15T21:47:34.416Z,100974.90
2019-02-15T21:50:00.944Z,100967.09
2019-02-15T21:52:27.497Z,100959.77
2019-02-15T21:54:54.042Z,100963.16
2019-02-15T21:57:20.591Z,100962.91
2019-02-15T21:59:47.119Z,100957.52
2019-02-15T22:02:13.681Z,100951.94
2019-02-15T22:04:40.206Z,100948.58
2019-02-15T22:07:06.759Z,100951.63
2019-02-15T22:09:33.298Z,100946.69
2019-02-15T22:11:59.850Z,100945.53
2019-02-15T22:14:26.386Z,100941.61
2019-02-15T22:16:52.959Z,100948.87
2019-02-15T22:19:19.489Z,100936.98
2019-02-15T22:21:46.040Z,100936.29
2019-02-15T22:24:12.597Z,100928.53
2019-02-15T22:26:39.131Z,100937.84
2019-02-15T22:29:05.668Z,100932.28
2019-02-15T22:31:32.240Z,100933.48
2019-02-15T22:33:58.777Z,100932.72
2019-02-15T22:36:25.545Z,100929.05
2019-02-15T22:38:52.078Z,100922.68
2019-02-15T22:41:18.605Z,100919.98
2019-02-15T22:43:45.280Z,100911.56
2019-02-15T22:46:11.799Z,100915.17
2019-02-15T22:48:38.348Z,100919.28
2019-02-15T22:51:04.885Z,100919.48
2019-02-15T22:53:31.437Z,100918.84
2019-02-15T22:55:57.957Z,100919.67
2019-02-15T22:58:24.503Z,100924.42
2019-02-15T23:00:57.191Z,100916.23
2019-02-15T23:03:24.778Z,100915.49
2019-02-15T23:05:51.322Z,100903.28
2019-02-15T23:08:17.964Z,100910.50
2019-02-15T23:10:44.517Z,100902.57
2019-02-15T23:13:11.050Z,100902.21
2019-02-15T23:15:37.600Z,100902.53
2019-02-15T23:18:04.175Z,100898.09
2019-02-15T23:20:30.700Z,100899.84
2019-02-15T23:22:57.260Z,100895.52
2019-02-15T23:25:25.151Z,100897.41
2019-02-15T23:27:51.941Z,100901.50
2019-02-15T23:30:18.475Z,100896.74
2019-02-15T23:32:45.031Z,100894.72
2019-02-15T23:35:11.566Z,100889.00
2019-02-15T23:37:38.119Z,100889.56
2019-02-15T23:40:04.661Z,100899.19
2019-02-15T23:42:31.215Z,100890.77
2019-02-15T23:44:57.768Z,100892.80
2019-02-15T23:47:24.309Z,100901.15
2019-02-15T23:49:50.837Z,100894.95
2019-02-15T23:52:17.392Z,100890.71
2019-02-15T23:54:43.949Z,100887.85
2019-02-15T23:57:10.473Z,100890.09
2019-02-15T23:59:37.029Z,100888.28
